Terminal Aerodrome Forecast
Issued by NWS

Home | Current Version | Previous Version | Text Only | Print | Product List | Glossary On
Versions: 1 2 3 4 5 6 7 8 9 10 11 12 13 14 15
000
FTUS43 KICT 222335
TAFCNU
TAF
KCNU 222335Z 2300/2324 21009KT P6SM BKN250
     FM230600 13004KT P6SM BKN250
     FM231000 10005KT 3SM BR SCT005 BKN150
     FM231200 10007KT 1SM BR OVC003
     FM231500 11009KT 3SM BR OVC007
     FM231800 13013KT P6SM SCT015 BKN130=

USA.gov is the U.S. government's official web portal to all federal, state and local government web resources and services.